MMDO/DGO METAR and TAF weather

Enter ICAO airport designator
Station Type Date Time Source
MMDO METAR 2021/01/16 01:50 UTC NOAA

MMDO 160150Z 00000KT 8SM SKC 11/M17 A3019


Station Type Date Time Source
MMDO Decoded METAR 2021/01/16 01:50 UTC NOAA

Durango Airport, Mexico (MMDO) 24-08N 104-32W
Jan 15, 2021 - 08:50 PM EST / 2021.01.16 0150 UTC
Wind: Calm:0
Visibility: 8 mile(s):0
Sky conditions: clear
Temperature: 51 F (11 C)
Dew Point: 1 F (-17 C)
Relative Humidity: 12%
Pressure (altimeter): 30.19 in. Hg (1022 hPa)
ob: MMDO 160150Z 00000KT 8SM SKC 11/M17 A3019
cycle: 2

Station Type Date Time Source
MMDO TAF 2021/01/15 18:16 UTC NOAA

TAF MMDO 151712Z 1518/1618 24008KT P6SM SKC
BECMG 1602/1603 35005KT
FM161700 21008KT P6SM SKC

Example: see airport list